sensor_id;sensor_type;location;lat;lon;timestamp;P1;durP1;ratioP1;P2;durP2;ratioP2
14320;SDS011;7244;47.364;8.464;2023-04-23T00:08:01;5;;;2;;
14320;SDS011;7244;47.364;8.464;2023-04-23T00:23:02;4;;;3;;
14320;SDS011;7244;47.364;8.464;2023-04-23T00:39:02;4;;;3;;
14320;SDS011;7244;47.364;8.464;2023-04-23T00:40:02;4;;;3;;
14320;SDS011;7244;47.364;8.464;2023-04-23T00:41:01;4;;;3;;
14320;SDS011;7244;47.364;8.464;2023-04-23T00:42:02;4;;;3;;
14320;SDS011;7244;47.364;8.464;2023-04-23T00:43:02;4;;;3;;
14320;SDS011;7244;47.364;8.464;2023-04-23T00:44:01;4;;;3;;
14320;SDS011;7244;47.364;8.464;2023-04-23T00:45:02;4;;;3;;
14320;SDS011;7244;47.364;8.464;2023-04-23T00:46:02;4;;;3;;
14320;SDS011;7244;47.364;8.464;2023-04-23T00:47:01;4;;;3;;
14320;SDS011;7244;47.364;8.464;2023-04-23T00:48:02;4;;;3;;
14320;SDS011;7244;47.364;8.464;2023-04-23T00:49:02;4;;;3;;
14320;SDS011;7244;47.364;8.464;2023-04-23T00:50:02;4;;;3;;
14320;SDS011;7244;47.364;8.464;2023-04-23T00:51:03;4;;;3;;
14320;SDS011;7244;47.364;8.464;2023-04-23T00:52:02;4;;;3;;
14320;SDS011;7244;47.364;8.464;2023-04-23T00:53:01;6;;;3;;
14320;SDS011;7244;47.364;8.464;2023-04-23T01:10:02;4;;;3;;
14320;SDS011;7244;47.364;8.464;2023-04-23T01:26:01;5;;;3;;
14320;SDS011;7244;47.364;8.464;2023-04-23T01:42:02;7;;;3;;
14320;SDS011;7244;47.364;8.464;2023-04-23T01:58:02;4;;;2;;
14320;SDS011;7244;47.364;8.464;2023-04-23T02:13:02;7;;;2;;
14320;SDS011;7244;47.364;8.464;2023-04-23T02:29:01;5;;;3;;
14320;SDS011;7244;47.364;8.464;2023-04-23T02:45:01;6;;;3;;
14320;SDS011;7244;47.364;8.464;2023-04-23T03:01:01;7;;;3;;
14320;SDS011;7244;47.364;8.464;2023-04-23T03:16:02;4;;;2;;
14320;SDS011;7244;47.364;8.464;2023-04-23T03:32:01;4;;;2;;
14320;SDS011;7244;47.364;8.464;2023-04-23T03:48:02;4;;;2;;
14320;SDS011;7244;47.364;8.464;2023-04-23T04:03:01;4;;;2;;
14320;SDS011;7244;47.364;8.464;2023-04-23T04:19:01;5;;;3;;
14320;SDS011;7244;47.364;8.464;2023-04-23T04:35:01;6;;;3;;
14320;SDS011;7244;47.364;8.464;2023-04-23T04:51:02;6;;;4;;
14320;SDS011;7244;47.364;8.464;2023-04-23T05:06:02;9;;;4;;
14320;SDS011;7244;47.364;8.464;2023-04-23T05:22:02;6;;;4;;
14320;SDS011;7244;47.364;8.464;2023-04-23T05:38:02;5;;;3;;
14320;SDS011;7244;47.364;8.464;2023-04-23T05:55:12;7;;;4;;
14320;SDS011;7244;47.364;8.464;2023-04-23T06:09:02;6;;;4;;
14320;SDS011;7244;47.364;8.464;2023-04-23T06:25:02;10;;;5;;
14320;SDS011;7244;47.364;8.464;2023-04-23T06:41:02;8;;;5;;
14320;SDS011;7244;47.364;8.464;2023-04-23T06:56:02;13;;;6;;
14320;SDS011;7244;47.364;8.464;2023-04-23T07:12:02;14;;;6;;
14320;SDS011;7244;47.364;8.464;2023-04-23T07:28:02;7;;;5;;
14320;SDS011;7244;47.364;8.464;2023-04-23T07:44:02;7;;;4;;
14320;SDS011;7244;47.364;8.464;2023-04-23T07:59:02;4;;;2;;
14320;SDS011;7244;47.364;8.464;2023-04-23T08:15:02;5;;;2;;
14320;SDS011;7244;47.364;8.464;2023-04-23T08:31:02;5;;;1;;
14320;SDS011;7244;47.364;8.464;2023-04-23T08:46:02;3;;;1;;
14320;SDS011;7244;47.364;8.464;2023-04-23T09:02:02;5;;;1;;
14320;SDS011;7244;47.364;8.464;2023-04-23T09:18:02;3;;;2;;
14320;SDS011;7244;47.364;8.464;2023-04-23T09:34:02;4;;;2;;
14320;SDS011;7244;47.364;8.464;2023-04-23T09:49:02;4;;;2;;
14320;SDS011;7244;47.364;8.464;2023-04-23T10:05:03;6;;;2;;
14320;SDS011;7244;47.364;8.464;2023-04-23T10:21:01;3;;;2;;
14320;SDS011;7244;47.364;8.464;2023-04-23T10:37:01;4;;;1;;
14320;SDS011;7244;47.364;8.464;2023-04-23T10:52:02;4;;;2;;
14320;SDS011;7244;47.364;8.464;2023-04-23T11:08:02;6;;;2;;
14320;SDS011;7244;47.364;8.464;2023-04-23T11:24:01;14;;;2;;
14320;SDS011;7244;47.364;8.464;2023-04-23T11:39:02;4;;;1;;
14320;SDS011;7244;47.364;8.464;2023-04-23T11:55:02;4;;;2;;
14320;SDS011;7244;47.364;8.464;2023-04-23T12:11:02;2;;;1;;
14320;SDS011;7244;47.364;8.464;2023-04-23T12:27:02;2;;;1;;
14320;SDS011;7244;47.364;8.464;2023-04-23T12:42:03;2;;;1;;
14320;SDS011;7244;47.364;8.464;2023-04-23T12:58:01;1;;;1;;
14320;SDS011;7244;47.364;8.464;2023-04-23T13:14:02;3;;;1;;
14320;SDS011;7244;47.364;8.464;2023-04-23T13:30:02;3;;;1;;
14320;SDS011;7244;47.364;8.464;2023-04-23T13:45:02;3;;;1;;
14320;SDS011;7244;47.364;8.464;2023-04-23T13:46:02;3;;;1;;
14320;SDS011;7244;47.364;8.464;2023-04-23T13:47:02;3;;;1;;
14320;SDS011;7244;47.364;8.464;2023-04-23T13:48:02;3;;;1;;
14320;SDS011;7244;47.364;8.464;2023-04-23T13:49:02;3;;;1;;
14320;SDS011;7244;47.364;8.464;2023-04-23T13:50:02;3;;;1;;
14320;SDS011;7244;47.364;8.464;2023-04-23T13:51:02;3;;;1;;
14320;SDS011;7244;47.364;8.464;2023-04-23T13:52:02;3;;;1;;
14320;SDS011;7244;47.364;8.464;2023-04-23T13:53:02;3;;;1;;
14320;SDS011;7244;47.364;8.464;2023-04-23T13:54:02;3;;;1;;
14320;SDS011;7244;47.364;8.464;2023-04-23T13:55:02;3;;;1;;
14320;SDS011;7244;47.364;8.464;2023-04-23T13:56:02;3;;;1;;
14320;SDS011;7244;47.364;8.464;2023-04-23T13:57:01;3;;;1;;
14320;SDS011;7244;47.364;8.464;2023-04-23T13:58:02;3;;;1;;
14320;SDS011;7244;47.364;8.464;2023-04-23T13:59:02;3;;;1;;
14320;SDS011;7244;47.364;8.464;2023-04-23T14:00:01;3;;;1;;
14320;SDS011;7244;47.364;8.464;2023-04-23T14:17:02;2;;;1;;
14320;SDS011;7244;47.364;8.464;2023-04-23T14:33:02;5;;;1;;
14320;SDS011;7244;47.364;8.464;2023-04-23T14:50:02;5;;;1;;
14320;SDS011;7244;47.364;8.464;2023-04-23T15:07:02;4;;;2;;
14320;SDS011;7244;47.364;8.464;2023-04-23T15:23:02;7;;;2;;
14320;SDS011;7244;47.364;8.464;2023-04-23T15:39:02;7;;;2;;
14320;SDS011;7244;47.364;8.464;2023-04-23T15:40:02;7;;;2;;
14320;SDS011;7244;47.364;8.464;2023-04-23T15:41:02;7;;;2;;
14320;SDS011;7244;47.364;8.464;2023-04-23T15:42:02;7;;;2;;
14320;SDS011;7244;47.364;8.464;2023-04-23T15:43:01;7;;;2;;
14320;SDS011;7244;47.364;8.464;2023-04-23T15:44:02;7;;;2;;
14320;SDS011;7244;47.364;8.464;2023-04-23T15:45:02;7;;;2;;
14320;SDS011;7244;47.364;8.464;2023-04-23T15:46:02;7;;;2;;
14320;SDS011;7244;47.364;8.464;2023-04-23T15:47:02;7;;;2;;
14320;SDS011;7244;47.364;8.464;2023-04-23T15:48:01;7;;;2;;
14320;SDS011;7244;47.364;8.464;2023-04-23T15:49:01;7;;;2;;
14320;SDS011;7244;47.364;8.464;2023-04-23T15:50:02;7;;;2;;
14320;SDS011;7244;47.364;8.464;2023-04-23T15:51:02;7;;;2;;
14320;SDS011;7244;47.364;8.464;2023-04-23T15:52:01;7;;;2;;
14320;SDS011;7244;47.364;8.464;2023-04-23T15:53:02;7;;;2;;
14320;SDS011;7244;47.364;8.464;2023-04-23T15:54:01;7;;;2;;
14320;SDS011;7244;47.364;8.464;2023-04-23T15:55:02;7;;;2;;
14320;SDS011;7244;47.364;8.464;2023-04-23T15:56:02;7;;;2;;
14320;SDS011;7244;47.364;8.464;2023-04-23T15:57:01;7;;;2;;
14320;SDS011;7244;47.364;8.464;2023-04-23T15:58:01;7;;;2;;
14320;SDS011;7244;47.364;8.464;2023-04-23T15:59:02;7;;;2;;
14320;SDS011;7244;47.364;8.464;2023-04-23T16:00:03;7;;;2;;
14320;SDS011;7244;47.364;8.464;2023-04-23T16:01:02;7;;;2;;
14320;SDS011;7244;47.364;8.464;2023-04-23T16:02:02;7;;;2;;
14320;SDS011;7244;47.364;8.464;2023-04-23T16:03:02;7;;;2;;
14320;SDS011;7244;47.364;8.464;2023-04-23T16:04:02;7;;;2;;
14320;SDS011;7244;47.364;8.464;2023-04-23T16:05:02;7;;;2;;
14320;SDS011;7244;47.364;8.464;2023-04-23T16:06:02;7;;;2;;
14320;SDS011;7244;47.364;8.464;2023-04-23T16:07:02;7;;;2;;
14320;SDS011;7244;47.364;8.464;2023-04-23T16:08:02;7;;;2;;
14320;SDS011;7244;47.364;8.464;2023-04-23T16:09:02;7;;;2;;
14320;SDS011;7244;47.364;8.464;2023-04-23T16:10:02;7;;;2;;
14320;SDS011;7244;47.364;8.464;2023-04-23T16:11:02;7;;;2;;
14320;SDS011;7244;47.364;8.464;2023-04-23T16:12:02;7;;;2;;
14320;SDS011;7244;47.364;8.464;2023-04-23T16:13:02;7;;;2;;
14320;SDS011;7244;47.364;8.464;2023-04-23T16:14:02;2;;;1;;
14320;SDS011;7244;47.364;8.464;2023-04-23T16:31:02;2;;;1;;
14320;SDS011;7244;47.364;8.464;2023-04-23T16:32:02;2;;;1;;
14320;SDS011;7244;47.364;8.464;2023-04-23T16:33:01;2;;;1;;
14320;SDS011;7244;47.364;8.464;2023-04-23T16:34:02;2;;;1;;
14320;SDS011;7244;47.364;8.464;2023-04-23T16:35:02;2;;;1;;
14320;SDS011;7244;47.364;8.464;2023-04-23T16:36:02;2;;;1;;
14320;SDS011;7244;47.364;8.464;2023-04-23T16:37:02;2;;;1;;
14320;SDS011;7244;47.364;8.464;2023-04-23T16:38:02;2;;;1;;
14320;SDS011;7244;47.364;8.464;2023-04-23T16:39:02;2;;;1;;
14320;SDS011;7244;47.364;8.464;2023-04-23T16:40:02;2;;;1;;
14320;SDS011;7244;47.364;8.464;2023-04-23T16:41:02;2;;;1;;
14320;SDS011;7244;47.364;8.464;2023-04-23T16:42:02;2;;;1;;
14320;SDS011;7244;47.364;8.464;2023-04-23T16:43:01;2;;;1;;
14320;SDS011;7244;47.364;8.464;2023-04-23T16:44:02;2;;;1;;
14320;SDS011;7244;47.364;8.464;2023-04-23T16:45:02;2;;;1;;
14320;SDS011;7244;47.364;8.464;2023-04-23T16:46:02;2;;;1;;
14320;SDS011;7244;47.364;8.464;2023-04-23T16:47:02;2;;;1;;
14320;SDS011;7244;47.364;8.464;2023-04-23T16:48:02;2;;;1;;
14320;SDS011;7244;47.364;8.464;2023-04-23T16:49:02;1;;;0;;
14320;SDS011;7244;47.364;8.464;2023-04-23T17:06:07;2;;;1;;
14320;SDS011;7244;47.364;8.464;2023-04-23T17:22:02;2;;;1;;
14320;SDS011;7244;47.364;8.464;2023-04-23T17:23:02;2;;;1;;
14320;SDS011;7244;47.364;8.464;2023-04-23T17:24:02;2;;;1;;
14320;SDS011;7244;47.364;8.464;2023-04-23T17:25:02;2;;;1;;
14320;SDS011;7244;47.364;8.464;2023-04-23T17:26:02;2;;;1;;
14320;SDS011;7244;47.364;8.464;2023-04-23T17:27:02;2;;;1;;
14320;SDS011;7244;47.364;8.464;2023-04-23T17:28:02;2;;;1;;
14320;SDS011;7244;47.364;8.464;2023-04-23T17:29:02;2;;;1;;
14320;SDS011;7244;47.364;8.464;2023-04-23T17:30:02;2;;;1;;
14320;SDS011;7244;47.364;8.464;2023-04-23T17:31:02;2;;;1;;
14320;SDS011;7244;47.364;8.464;2023-04-23T17:32:01;2;;;1;;
14320;SDS011;7244;47.364;8.464;2023-04-23T17:33:02;2;;;1;;
14320;SDS011;7244;47.364;8.464;2023-04-23T17:34:02;2;;;1;;
14320;SDS011;7244;47.364;8.464;2023-04-23T17:35:02;2;;;1;;
14320;SDS011;7244;47.364;8.464;2023-04-23T17:36:02;2;;;1;;
14320;SDS011;7244;47.364;8.464;2023-04-23T17:37:01;2;;;1;;
14320;SDS011;7244;47.364;8.464;2023-04-23T17:38:02;2;;;1;;
14320;SDS011;7244;47.364;8.464;2023-04-23T17:39:02;2;;;1;;
14320;SDS011;7244;47.364;8.464;2023-04-23T17:40:02;2;;;1;;
14320;SDS011;7244;47.364;8.464;2023-04-23T17:41:01;2;;;1;;
14320;SDS011;7244;47.364;8.464;2023-04-23T17:42:02;2;;;1;;
14320;SDS011;7244;47.364;8.464;2023-04-23T17:43:01;2;;;1;;
14320;SDS011;7244;47.364;8.464;2023-04-23T17:44:02;2;;;1;;
14320;SDS011;7244;47.364;8.464;2023-04-23T17:45:02;2;;;1;;
14320;SDS011;7244;47.364;8.464;2023-04-23T17:46:02;4;;;1;;
14320;SDS011;7244;47.364;8.464;2023-04-23T18:03:01;4;;;1;;
14320;SDS011;7244;47.364;8.464;2023-04-23T18:04:02;4;;;1;;
14320;SDS011;7244;47.364;8.464;2023-04-23T18:05:01;4;;;1;;
14320;SDS011;7244;47.364;8.464;2023-04-23T18:06:02;3;;;0;;
14320;SDS011;7244;47.364;8.464;2023-04-23T18:23:02;1;;;0;;
14320;SDS011;7244;47.364;8.464;2023-04-23T18:39:01;1;;;0;;
14320;SDS011;7244;47.364;8.464;2023-04-23T18:40:02;1;;;0;;
14320;SDS011;7244;47.364;8.464;2023-04-23T18:41:02;1;;;0;;
14320;SDS011;7244;47.364;8.464;2023-04-23T18:42:01;1;;;0;;
14320;SDS011;7244;47.364;8.464;2023-04-23T18:43:02;1;;;0;;
14320;SDS011;7244;47.364;8.464;2023-04-23T18:44:01;1;;;0;;
14320;SDS011;7244;47.364;8.464;2023-04-23T18:45:02;1;;;0;;
14320;SDS011;7244;47.364;8.464;2023-04-23T18:46:01;1;;;0;;
14320;SDS011;7244;47.364;8.464;2023-04-23T18:47:01;1;;;0;;
14320;SDS011;7244;47.364;8.464;2023-04-23T18:48:02;1;;;0;;
14320;SDS011;7244;47.364;8.464;2023-04-23T18:49:04;1;;;0;;
14320;SDS011;7244;47.364;8.464;2023-04-23T18:50:02;1;;;0;;
14320;SDS011;7244;47.364;8.464;2023-04-23T18:51:02;1;;;0;;
14320;SDS011;7244;47.364;8.464;2023-04-23T18:52:01;1;;;0;;
14320;SDS011;7244;47.364;8.464;2023-04-23T18:53:02;1;;;0;;
14320;SDS011;7244;47.364;8.464;2023-04-23T18:54:01;1;;;0;;
14320;SDS011;7244;47.364;8.464;2023-04-23T18:55:02;1;;;0;;
14320;SDS011;7244;47.364;8.464;2023-04-23T18:56:01;1;;;0;;
14320;SDS011;7244;47.364;8.464;2023-04-23T18:57:02;1;;;0;;
14320;SDS011;7244;47.364;8.464;2023-04-23T18:58:02;1;;;0;;
14320;SDS011;7244;47.364;8.464;2023-04-23T18:59:02;1;;;0;;
14320;SDS011;7244;47.364;8.464;2023-04-23T19:00:02;1;;;0;;
14320;SDS011;7244;47.364;8.464;2023-04-23T19:01:02;1;;;0;;
14320;SDS011;7244;47.364;8.464;2023-04-23T19:02:02;1;;;0;;
14320;SDS011;7244;47.364;8.464;2023-04-23T19:03:02;1;;;0;;
14320;SDS011;7244;47.364;8.464;2023-04-23T19:04:01;1;;;0;;
14320;SDS011;7244;47.364;8.464;2023-04-23T19:05:01;1;;;0;;
14320;SDS011;7244;47.364;8.464;2023-04-23T19:06:02;1;;;0;;
14320;SDS011;7244;47.364;8.464;2023-04-23T19:07:02;1;;;0;;
14320;SDS011;7244;47.364;8.464;2023-04-23T19:08:02;1;;;0;;
14320;SDS011;7244;47.364;8.464;2023-04-23T19:09:02;1;;;0;;
14320;SDS011;7244;47.364;8.464;2023-04-23T19:10:01;1;;;0;;
14320;SDS011;7244;47.364;8.464;2023-04-23T19:11:02;1;;;0;;
14320;SDS011;7244;47.364;8.464;2023-04-23T19:12:02;1;;;0;;
14320;SDS011;7244;47.364;8.464;2023-04-23T19:13:02;2;;;0;;
14320;SDS011;7244;47.364;8.464;2023-04-23T19:30:02;2;;;0;;
14320;SDS011;7244;47.364;8.464;2023-04-23T19:31:02;2;;;0;;
14320;SDS011;7244;47.364;8.464;2023-04-23T19:32:02;2;;;0;;
14320;SDS011;7244;47.364;8.464;2023-04-23T19:33:02;2;;;0;;
14320;SDS011;7244;47.364;8.464;2023-04-23T19:34:01;2;;;0;;
14320;SDS011;7244;47.364;8.464;2023-04-23T19:35:02;2;;;0;;
14320;SDS011;7244;47.364;8.464;2023-04-23T19:36:02;2;;;0;;
14320;SDS011;7244;47.364;8.464;2023-04-23T19:37:02;2;;;0;;
14320;SDS011;7244;47.364;8.464;2023-04-23T19:38:01;2;;;0;;
14320;SDS011;7244;47.364;8.464;2023-04-23T19:39:02;2;;;0;;
14320;SDS011;7244;47.364;8.464;2023-04-23T19:40:02;2;;;0;;
14320;SDS011;7244;47.364;8.464;2023-04-23T19:41:02;2;;;0;;
14320;SDS011;7244;47.364;8.464;2023-04-23T19:42:02;2;;;0;;
14320;SDS011;7244;47.364;8.464;2023-04-23T19:43:01;2;;;0;;
14320;SDS011;7244;47.364;8.464;2023-04-23T19:44:01;2;;;0;;
14320;SDS011;7244;47.364;8.464;2023-04-23T19:45:02;2;;;0;;
14320;SDS011;7244;47.364;8.464;2023-04-23T19:46:02;2;;;0;;
14320;SDS011;7244;47.364;8.464;2023-04-23T19:47:01;2;;;0;;
14320;SDS011;7244;47.364;8.464;2023-04-23T19:48:02;2;;;0;;
14320;SDS011;7244;47.364;8.464;2023-04-23T19:49:02;2;;;0;;
14320;SDS011;7244;47.364;8.464;2023-04-23T19:50:01;2;;;0;;
14320;SDS011;7244;47.364;8.464;2023-04-23T19:51:02;2;;;0;;
14320;SDS011;7244;47.364;8.464;2023-04-23T19:52:01;2;;;0;;
14320;SDS011;7244;47.364;8.464;2023-04-23T19:53:02;2;;;0;;
14320;SDS011;7244;47.364;8.464;2023-04-23T19:54:01;2;;;0;;
14320;SDS011;7244;47.364;8.464;2023-04-23T19:55:01;0;;;0;;
14320;SDS011;7244;47.364;8.464;2023-04-23T20:12:01;0;;;0;;
14320;SDS011;7244;47.364;8.464;2023-04-23T20:13:01;0;;;0;;
14320;SDS011;7244;47.364;8.464;2023-04-23T20:14:01;0;;;0;;
14320;SDS011;7244;47.364;8.464;2023-04-23T20:15:01;0;;;0;;
14320;SDS011;7244;47.364;8.464;2023-04-23T20:16:02;0;;;0;;
14320;SDS011;7244;47.364;8.464;2023-04-23T20:17:02;0;;;0;;
14320;SDS011;7244;47.364;8.464;2023-04-23T20:18:01;0;;;0;;
14320;SDS011;7244;47.364;8.464;2023-04-23T20:19:01;0;;;0;;
14320;SDS011;7244;47.364;8.464;2023-04-23T20:20:02;0;;;0;;
14320;SDS011;7244;47.364;8.464;2023-04-23T20:21:01;0;;;0;;
14320;SDS011;7244;47.364;8.464;2023-04-23T20:22:02;0;;;0;;
14320;SDS011;7244;47.364;8.464;2023-04-23T20:23:01;0;;;0;;
14320;SDS011;7244;47.364;8.464;2023-04-23T20:24:01;0;;;0;;
14320;SDS011;7244;47.364;8.464;2023-04-23T20:25:02;0;;;0;;
14320;SDS011;7244;47.364;8.464;2023-04-23T20:26:01;0;;;0;;
14320;SDS011;7244;47.364;8.464;2023-04-23T20:27:01;0;;;0;;
14320;SDS011;7244;47.364;8.464;2023-04-23T20:28:02;0;;;0;;
14320;SDS011;7244;47.364;8.464;2023-04-23T20:29:01;0;;;0;;
14320;SDS011;7244;47.364;8.464;2023-04-23T20:30:02;0;;;0;;
14320;SDS011;7244;47.364;8.464;2023-04-23T20:31:02;0;;;0;;
14320;SDS011;7244;47.364;8.464;2023-04-23T20:32:02;0;;;0;;
14320;SDS011;7244;47.364;8.464;2023-04-23T20:33:02;0;;;0;;
14320;SDS011;7244;47.364;8.464;2023-04-23T20:34:02;0;;;0;;
14320;SDS011;7244;47.364;8.464;2023-04-23T20:35:01;0;;;0;;
14320;SDS011;7244;47.364;8.464;2023-04-23T20:36:01;0;;;0;;
14320;SDS011;7244;47.364;8.464;2023-04-23T20:37:01;0;;;0;;
14320;SDS011;7244;47.364;8.464;2023-04-23T20:38:01;0;;;0;;
14320;SDS011;7244;47.364;8.464;2023-04-23T20:39:02;0;;;0;;
14320;SDS011;7244;47.364;8.464;2023-04-23T20:40:01;0;;;0;;
14320;SDS011;7244;47.364;8.464;2023-04-23T20:41:01;0;;;0;;
14320;SDS011;7244;47.364;8.464;2023-04-23T20:42:02;0;;;0;;
14320;SDS011;7244;47.364;8.464;2023-04-23T20:43:02;0;;;0;;
14320;SDS011;7244;47.364;8.464;2023-04-23T20:44:02;0;;;0;;
14320;SDS011;7244;47.364;8.464;2023-04-23T20:45:02;0;;;0;;
14320;SDS011;7244;47.364;8.464;2023-04-23T20:46:01;0;;;0;;
14320;SDS011;7244;47.364;8.464;2023-04-23T20:47:02;0;;;0;;
14320;SDS011;7244;47.364;8.464;2023-04-23T20:48:02;0;;;0;;
14320;SDS011;7244;47.364;8.464;2023-04-23T20:49:02;0;;;0;;
14320;SDS011;7244;47.364;8.464;2023-04-23T20:50:02;0;;;0;;
14320;SDS011;7244;47.364;8.464;2023-04-23T20:51:02;0;;;0;;
14320;SDS011;7244;47.364;8.464;2023-04-23T20:52:01;1;;;0;;
14320;SDS011;7244;47.364;8.464;2023-04-23T21:09:02;1;;;0;;
14320;SDS011;7244;47.364;8.464;2023-04-23T21:10:02;1;;;0;;
14320;SDS011;7244;47.364;8.464;2023-04-23T21:11:01;1;;;0;;
14320;SDS011;7244;47.364;8.464;2023-04-23T21:12:01;1;;;0;;
14320;SDS011;7244;47.364;8.464;2023-04-23T21:13:02;1;;;0;;
14320;SDS011;7244;47.364;8.464;2023-04-23T21:14:01;1;;;0;;
14320;SDS011;7244;47.364;8.464;2023-04-23T21:15:02;1;;;0;;
14320;SDS011;7244;47.364;8.464;2023-04-23T21:16:02;1;;;0;;
14320;SDS011;7244;47.364;8.464;2023-04-23T21:17:01;1;;;0;;
14320;SDS011;7244;47.364;8.464;2023-04-23T21:18:02;1;;;0;;
14320;SDS011;7244;47.364;8.464;2023-04-23T21:19:01;1;;;0;;
14320;SDS011;7244;47.364;8.464;2023-04-23T21:20:02;1;;;0;;
14320;SDS011;7244;47.364;8.464;2023-04-23T21:21:01;1;;;0;;
14320;SDS011;7244;47.364;8.464;2023-04-23T21:22:01;1;;;0;;
14320;SDS011;7244;47.364;8.464;2023-04-23T21:23:02;1;;;0;;
14320;SDS011;7244;47.364;8.464;2023-04-23T21:24:02;1;;;0;;
14320;SDS011;7244;47.364;8.464;2023-04-23T21:25:01;1;;;0;;
14320;SDS011;7244;47.364;8.464;2023-04-23T21:26:02;1;;;0;;
14320;SDS011;7244;47.364;8.464;2023-04-23T21:27:02;1;;;0;;
14320;SDS011;7244;47.364;8.464;2023-04-23T21:28:01;1;;;0;;
14320;SDS011;7244;47.364;8.464;2023-04-23T21:29:01;1;;;0;;
14320;SDS011;7244;47.364;8.464;2023-04-23T21:30:04;1;;;0;;
14320;SDS011;7244;47.364;8.464;2023-04-23T21:31:06;1;;;0;;
14320;SDS011;7244;47.364;8.464;2023-04-23T21:32:01;1;;;0;;
14320;SDS011;7244;47.364;8.464;2023-04-23T21:33:02;1;;;0;;
14320;SDS011;7244;47.364;8.464;2023-04-23T21:34:01;1;;;0;;
14320;SDS011;7244;47.364;8.464;2023-04-23T21:35:02;1;;;0;;
14320;SDS011;7244;47.364;8.464;2023-04-23T21:36:02;1;;;0;;
14320;SDS011;7244;47.364;8.464;2023-04-23T21:37:01;1;;;0;;
14320;SDS011;7244;47.364;8.464;2023-04-23T21:38:02;1;;;0;;
14320;SDS011;7244;47.364;8.464;2023-04-23T21:39:02;1;;;0;;
14320;SDS011;7244;47.364;8.464;2023-04-23T21:40:01;1;;;0;;
14320;SDS011;7244;47.364;8.464;2023-04-23T21:41:01;1;;;0;;
14320;SDS011;7244;47.364;8.464;2023-04-23T21:42:01;1;;;0;;
14320;SDS011;7244;47.364;8.464;2023-04-23T21:43:02;1;;;0;;
14320;SDS011;7244;47.364;8.464;2023-04-23T21:44:01;1;;;0;;
14320;SDS011;7244;47.364;8.464;2023-04-23T21:45:02;1;;;0;;
14320;SDS011;7244;47.364;8.464;2023-04-23T21:46:01;1;;;0;;
14320;SDS011;7244;47.364;8.464;2023-04-23T21:47:01;1;;;0;;
14320;SDS011;7244;47.364;8.464;2023-04-23T21:48:02;1;;;0;;
14320;SDS011;7244;47.364;8.464;2023-04-23T21:49:02;1;;;0;;
14320;SDS011;7244;47.364;8.464;2023-04-23T21:50:01;1;;;0;;
14320;SDS011;7244;47.364;8.464;2023-04-23T21:51:02;1;;;0;;
14320;SDS011;7244;47.364;8.464;2023-04-23T21:52:02;1;;;0;;
14320;SDS011;7244;47.364;8.464;2023-04-23T21:53:02;1;;;0;;
14320;SDS011;7244;47.364;8.464;2023-04-23T21:54:02;1;;;0;;
14320;SDS011;7244;47.364;8.464;2023-04-23T21:55:01;1;;;0;;
14320;SDS011;7244;47.364;8.464;2023-04-23T21:56:01;1;;;0;;
14320;SDS011;7244;47.364;8.464;2023-04-23T21:57:01;1;;;0;;
14320;SDS011;7244;47.364;8.464;2023-04-23T21:58:02;1;;;0;;
14320;SDS011;7244;47.364;8.464;2023-04-23T21:59:01;1;;;0;;
14320;SDS011;7244;47.364;8.464;2023-04-23T22:00:03;1;;;0;;
14320;SDS011;7244;47.364;8.464;2023-04-23T22:01:02;1;;;0;;
14320;SDS011;7244;47.364;8.464;2023-04-23T22:02:02;1;;;0;;
14320;SDS011;7244;47.364;8.464;2023-04-23T22:03:01;1;;;0;;
14320;SDS011;7244;47.364;8.464;2023-04-23T22:04:02;1;;;0;;
14320;SDS011;7244;47.364;8.464;2023-04-23T22:05:02;1;;;0;;
14320;SDS011;7244;47.364;8.464;2023-04-23T22:06:02;1;;;0;;
14320;SDS011;7244;47.364;8.464;2023-04-23T22:07:01;1;;;0;;
14320;SDS011;7244;47.364;8.464;2023-04-23T22:08:02;1;;;0;;
14320;SDS011;7244;47.364;8.464;2023-04-23T22:09:02;1;;;0;;
14320;SDS011;7244;47.364;8.464;2023-04-23T22:10:01;1;;;0;;
14320;SDS011;7244;47.364;8.464;2023-04-23T22:11:02;1;;;0;;
14320;SDS011;7244;47.364;8.464;2023-04-23T22:12:01;1;;;0;;
14320;SDS011;7244;47.364;8.464;2023-04-23T22:13:02;1;;;0;;
14320;SDS011;7244;47.364;8.464;2023-04-23T22:14:02;1;;;0;;
14320;SDS011;7244;47.364;8.464;2023-04-23T22:15:02;1;;;0;;
14320;SDS011;7244;47.364;8.464;2023-04-23T22:16:02;1;;;0;;
14320;SDS011;7244;47.364;8.464;2023-04-23T22:17:02;1;;;0;;
14320;SDS011;7244;47.364;8.464;2023-04-23T22:18:01;1;;;0;;
14320;SDS011;7244;47.364;8.464;2023-04-23T22:19:01;1;;;0;;
14320;SDS011;7244;47.364;8.464;2023-04-23T22:20:02;1;;;0;;
14320;SDS011;7244;47.364;8.464;2023-04-23T22:21:02;1;;;0;;
14320;SDS011;7244;47.364;8.464;2023-04-23T22:22:02;1;;;0;;
14320;SDS011;7244;47.364;8.464;2023-04-23T22:23:01;1;;;0;;
14320;SDS011;7244;47.364;8.464;2023-04-23T22:24:02;1;;;0;;
14320;SDS011;7244;47.364;8.464;2023-04-23T22:25:02;1;;;0;;
14320;SDS011;7244;47.364;8.464;2023-04-23T22:26:02;1;;;0;;
14320;SDS011;7244;47.364;8.464;2023-04-23T22:27:01;1;;;0;;
14320;SDS011;7244;47.364;8.464;2023-04-23T22:28:02;1;;;0;;
14320;SDS011;7244;47.364;8.464;2023-04-23T22:29:02;1;;;0;;
14320;SDS011;7244;47.364;8.464;2023-04-23T22:30:03;1;;;0;;
14320;SDS011;7244;47.364;8.464;2023-04-23T22:31:02;1;;;0;;
14320;SDS011;7244;47.364;8.464;2023-04-23T22:32:01;1;;;0;;
14320;SDS011;7244;47.364;8.464;2023-04-23T22:33:02;1;;;0;;
14320;SDS011;7244;47.364;8.464;2023-04-23T22:34:02;1;;;0;;
14320;SDS011;7244;47.364;8.464;2023-04-23T22:35:02;1;;;0;;
14320;SDS011;7244;47.364;8.464;2023-04-23T22:36:02;1;;;0;;
14320;SDS011;7244;47.364;8.464;2023-04-23T22:37:01;1;;;0;;
14320;SDS011;7244;47.364;8.464;2023-04-23T22:38:01;1;;;0;;
14320;SDS011;7244;47.364;8.464;2023-04-23T22:39:02;1;;;0;;
14320;SDS011;7244;47.364;8.464;2023-04-23T22:40:02;1;;;0;;
14320;SDS011;7244;47.364;8.464;2023-04-23T22:41:01;1;;;0;;
14320;SDS011;7244;47.364;8.464;2023-04-23T22:42:01;1;;;0;;
14320;SDS011;7244;47.364;8.464;2023-04-23T22:43:02;1;;;0;;
14320;SDS011;7244;47.364;8.464;2023-04-23T22:44:02;1;;;0;;
14320;SDS011;7244;47.364;8.464;2023-04-23T22:45:02;1;;;0;;
14320;SDS011;7244;47.364;8.464;2023-04-23T22:46:02;1;;;0;;
14320;SDS011;7244;47.364;8.464;2023-04-23T22:47:01;1;;;0;;
14320;SDS011;7244;47.364;8.464;2023-04-23T22:48:02;1;;;0;;
14320;SDS011;7244;47.364;8.464;2023-04-23T22:49:01;1;;;0;;
14320;SDS011;7244;47.364;8.464;2023-04-23T22:50:02;1;;;0;;
14320;SDS011;7244;47.364;8.464;2023-04-23T22:51:02;1;;;0;;
